Time;durP1;ratioP1;P1;durP2;ratioP2;P2;SDS_P1;SDS_P2;PMS_P1;PMS_P2;Temp;Humidity;BMP_temperature;BMP_pressure;BME280_temperature;BME280_humidity;BME280_pressure;Samples;Min_cycle;Max_cycle;Signal;HPM_P1;HPM_P2
2022/07/23 00:00:34;;;;;;;4.60;3.35;;;20.20;62.90;22.20;94096.00;;;;10477360;28;45083;-62
2022/07/23 00:05:55;;;;;;;4.28;3.00;;;20.20;63.60;22.30;94084.00;;;;10476641;28;45300;-62
2022/07/23 00:11:16;;;;;;;4.85;3.10;;;20.20;63.90;22.30;94072.00;;;;10477061;28;45180;-63
2022/07/23 00:16:37;;;;;;;4.13;3.13;;;20.20;64.40;22.20;94074.00;;;;10466230;28;45314;-63
2022/07/23 00:21:57;;;;;;;4.75;3.22;;;20.10;64.60;22.30;94065.00;;;;10476231;28;45228;-62
2022/07/23 00:27:19;;;;;;;4.57;3.42;;;20.10;64.50;22.20;94083.00;;;;10476584;28;45151;-62
2022/07/23 00:32:47;;;;;;;4.65;3.33;;;20.20;64.80;22.20;94099.00;;;;10463492;28;45185;-66
2022/07/23 00:38:10;;;;;;;4.72;3.30;;;20.10;64.80;22.20;94083.00;;;;10480421;28;45066;-63
2022/07/23 00:43:32;;;;;;;4.95;3.70;;;20.10;64.60;22.20;94066.00;;;;10483846;28;45207;-63
2022/07/23 00:48:52;;;;;;;5.97;3.92;;;20.10;64.70;22.10;94061.00;;;;10483974;28;45255;-63
2022/07/23 00:54:13;;;;;;;5.22;3.50;;;20.00;64.60;22.10;94060.00;;;;10497188;28;45367;-63
2022/07/23 00:59:34;;;;;;;5.40;3.70;;;19.90;64.20;22.10;94024.00;;;;10478143;28;45290;-64
2022/07/23 01:04:55;;;;;;;4.80;3.50;;;19.90;64.00;22.10;94041.00;;;;10477978;28;45561;-63
2022/07/23 01:10:34;;;;;;;6.22;3.65;;;19.90;63.90;22.00;94039.00;;;;10483363;28;45268;-63
2022/07/23 01:15:56;;;;;;;5.22;3.80;;;19.90;64.60;22.00;94033.00;;;;10481221;28;45287;-63
2022/07/23 01:21:19;;;;;;;4.55;3.70;;;19.90;64.30;22.00;94027.00;;;;10481775;28;45327;-63
2022/07/23 01:26:46;;;;;;;4.20;3.00;;;19.80;64.20;22.00;94035.00;;;;10482505;28;45288;-63
2022/07/23 01:32:07;;;;;;;5.03;3.20;;;19.90;64.10;22.00;93989.00;;;;10482506;28;45172;-63
2022/07/23 01:37:28;;;;;;;5.55;3.53;;;19.90;63.40;22.00;93981.00;;;;10482073;28;45197;-62
2022/07/23 01:42:50;;;;;;;4.88;3.47;;;19.90;63.00;22.00;93981.00;;;;10481279;28;45140;-63
2022/07/23 01:48:10;;;;;;;5.18;3.20;;;19.90;63.20;22.00;94015.00;;;;10481565;28;45395;-63
2022/07/23 01:53:31;;;;;;;6.05;3.42;;;19.90;63.30;22.00;94044.00;;;;10486095;28;45250;-63
2022/07/23 01:58:53;;;;;;;3.72;2.90;;;19.90;63.10;22.00;94061.00;;;;10490922;28;45311;-63
2022/07/23 02:04:14;;;;;;;4.55;3.38;;;19.90;62.90;21.90;94075.00;;;;10481443;28;45223;-63
2022/07/23 02:09:34;;;;;;;4.65;2.85;;;19.80;62.60;21.90;94063.00;;;;10480323;28;45207;-63
2022/07/23 02:14:56;;;;;;;4.43;3.20;;;19.80;62.70;21.90;94075.00;;;;10467693;28;45457;-63
2022/07/23 02:20:17;;;;;;;4.25;3.17;;;19.80;62.80;21.90;94059.00;;;;10480246;28;45445;-63
2022/07/23 02:25:38;;;;;;;4.78;3.20;;;19.80;62.90;21.90;94043.00;;;;10480053;28;45448;-63
2022/07/23 02:31:00;;;;;;;6.80;3.45;;;19.80;62.60;21.90;94043.00;;;;10453417;28;45209;-63
2022/07/23 02:36:20;;;;;;;4.97;3.42;;;19.80;62.90;21.90;94034.00;;;;10480481;28;45287;-63
2022/07/23 02:41:40;;;;;;;3.90;3.30;;;19.80;63.00;21.90;94032.00;;;;10480287;28;45399;-63
2022/07/23 02:47:02;;;;;;;5.53;3.58;;;19.80;63.00;21.90;94023.00;;;;10479409;28;45123;-63
2022/07/23 02:52:23;;;;;;;5.90;3.53;;;19.90;63.10;21.90;94028.00;;;;10482818;28;45251;-63
2022/07/23 02:57:43;;;;;;;5.13;3.55;;;19.80;63.50;21.90;94033.00;;;;10489729;28;45453;-63
2022/07/23 03:03:06;;;;;;;6.25;3.40;;;19.80;63.40;21.90;94017.00;;;;10479709;28;45232;-62
2022/07/23 03:08:26;;;;;;;4.97;3.35;;;19.80;63.50;21.80;94015.00;;;;10466901;28;45236;-62
2022/07/23 03:13:47;;;;;;;5.28;3.40;;;19.80;63.00;21.90;94028.00;;;;10478499;28;45145;-62
2022/07/23 03:19:08;;;;;;;4.32;3.03;;;19.80;62.70;21.90;94116.00;;;;10479745;28;45224;-63
2022/07/23 03:30:05;;;;;;;4.35;3.20;;;19.70;62.30;21.80;94114.00;;;;10478950;28;45480;-63
2022/07/23 03:35:27;;;;;;;6.15;3.65;;;19.70;64.00;21.80;94101.00;;;;10477964;28;45216;-63
2022/07/23 03:40:48;;;;;;;5.15;3.17;;;19.70;64.70;21.80;94084.00;;;;10477793;28;45176;-63
2022/07/23 03:46:09;;;;;;;6.65;3.65;;;19.70;64.70;21.80;94066.00;;;;10477650;28;45489;-63
2022/07/23 03:51:32;;;;;;;4.70;3.38;;;19.70;65.10;21.80;94055.00;;;;10478080;28;45271;-62
2022/07/23 03:56:52;;;;;;;5.13;3.55;;;19.70;65.20;21.80;94089.00;;;;10494196;28;45406;-63
2022/07/23 04:02:12;;;;;;;5.20;3.40;;;19.70;65.40;21.70;94126.00;;;;10477377;28;45550;-62
2022/07/23 04:07:34;;;;;;;5.30;3.40;;;19.60;65.70;21.70;94116.00;;;;10476224;28;45222;-63
2022/07/23 04:12:55;;;;;;;4.78;3.20;;;19.60;65.80;21.70;94058.00;;;;10476729;28;45478;-62
2022/07/23 04:18:17;;;;;;;5.55;3.13;;;19.60;65.70;21.80;94023.00;;;;10465583;28;45496;-63
2022/07/23 04:23:39;;;;;;;5.13;3.30;;;19.70;65.30;21.70;94042.00;;;;10475764;28;45288;-63
2022/07/23 04:28:59;;;;;;;4.05;3.00;;;19.70;65.70;21.70;94056.00;;;;10476892;28;45259;-64
2022/07/23 04:34:20;;;;;;;4.53;3.35;;;19.60;66.20;21.70;94061.00;;;;10462087;28;45367;-63
2022/07/23 04:39:42;;;;;;;5.00;3.70;;;19.60;66.40;21.70;94069.00;;;;10476674;28;45292;-63
2022/07/23 04:45:03;;;;;;;4.65;3.53;;;19.60;66.70;21.70;94094.00;;;;10475718;28;45220;-63
2022/07/23 04:50:24;;;;;;;5.30;3.63;;;19.60;66.70;21.70;94085.00;;;;10476548;28;45169;-63
2022/07/23 04:55:45;;;;;;;5.32;3.60;;;19.70;66.60;21.70;94096.00;;;;10489688;28;45304;-63
2022/07/23 05:01:06;;;;;;;6.07;3.70;;;19.70;66.60;21.70;94103.00;;;;10481426;28;45195;-63
2022/07/23 05:06:26;;;;;;;5.53;3.83;;;19.70;66.70;21.80;94099.00;;;;10475244;28;45151;-64
2022/07/23 05:11:49;;;;;;;5.65;4.00;;;19.70;66.80;21.70;94082.00;;;;10475342;28;45316;-63
2022/07/23 05:17:09;;;;;;;4.72;3.40;;;19.60;67.30;21.70;94070.00;;;;10475519;28;45344;-63
2022/07/23 05:22:30;;;;;;;4.70;3.42;;;19.60;67.60;21.70;94073.00;;;;10476841;28;45405;-63
2022/07/23 05:27:51;;;;;;;5.13;3.85;;;19.70;67.60;21.80;94080.00;;;;10456722;28;45205;-63
2022/07/23 05:33:12;;;;;;;4.20;3.10;;;19.60;67.30;21.70;94083.00;;;;10482233;28;45179;-63
2022/07/23 05:38:34;;;;;;;5.95;3.80;;;19.70;67.60;21.70;94078.00;;;;10482309;28;45114;-63
2022/07/23 05:43:56;;;;;;;4.97;3.30;;;19.70;67.60;21.70;94105.00;;;;10482392;28;45385;-63
2022/07/23 05:49:16;;;;;;;6.40;3.80;;;19.70;67.60;21.70;94101.00;;;;10482414;28;45283;-63
2022/07/23 05:54:37;;;;;;;4.85;3.50;;;19.70;67.90;21.70;94109.00;;;;10494678;28;45180;-62
2022/07/23 05:59:59;;;;;;;4.45;3.25;;;19.70;67.90;21.70;94116.00;;;;10496867;28;45504;-63
2022/07/23 06:05:20;;;;;;;5.10;3.83;;;19.70;67.90;21.70;94122.00;;;;10497529;28;45134;-63
2022/07/23 06:10:41;;;;;;;4.93;3.38;;;19.70;68.20;21.70;94122.00;;;;10481097;28;45181;-63
2022/07/23 06:16:03;;;;;;;4.88;3.47;;;19.70;67.90;21.70;94120.00;;;;10479910;28;45228;-63
2022/07/23 06:21:23;;;;;;;4.85;3.50;;;19.70;68.10;21.70;94137.00;;;;10468501;28;45232;-63
2022/07/23 06:26:44;;;;;;;4.15;3.47;;;19.70;67.80;21.70;94129.00;;;;10480463;28;45358;-63
2022/07/23 06:32:06;;;;;;;4.10;2.83;;;19.70;67.80;21.70;94115.00;;;;10494364;28;45514;-63
2022/07/23 06:37:27;;;;;;;4.88;3.85;;;19.70;67.50;21.70;94120.00;;;;10453705;28;45240;-62
2022/07/23 06:42:47;;;;;;;4.55;3.20;;;19.70;67.80;21.70;94129.00;;;;10480460;28;45593;-65
2022/07/23 06:48:10;;;;;;;4.82;3.53;;;19.70;68.00;21.70;94120.00;;;;10479301;28;45215;-64
2022/07/23 06:53:30;;;;;;;5.20;3.60;;;19.70;68.00;21.70;94141.00;;;;10475321;28;45422;-65
2022/07/23 06:58:51;;;;;;;4.57;3.42;;;19.70;67.90;21.70;94158.00;;;;10466337;28;44662;-65
2022/07/23 07:04:13;;;;;;;4.30;3.00;;;19.60;67.70;21.70;94164.00;;;;10476425;28;45236;-65
2022/07/23 07:09:34;;;;;;;4.15;3.22;;;19.60;68.30;21.70;94183.00;;;;10476465;28;45250;-65
2022/07/23 07:14:54;;;;;;;5.13;3.70;;;19.60;68.70;21.70;94193.00;;;;10476049;28;46143;-65
2022/07/23 07:20:16;;;;;;;3.95;3.20;;;19.60;69.20;21.70;94185.00;;;;10476565;28;45346;-65
2022/07/23 07:25:37;;;;;;;5.03;3.60;;;19.50;69.40;21.70;94180.00;;;;10475039;28;45584;-65
2022/07/23 07:30:57;;;;;;;6.70;3.75;;;19.70;69.10;21.70;94176.00;;;;10484074;28;45334;-65
2022/07/23 07:36:19;;;;;;;5.88;3.58;;;19.60;68.40;21.70;94183.00;;;;10476696;28;45404;-65
2022/07/23 07:41:40;;;;;;;6.28;3.17;;;19.70;67.80;21.70;94180.00;;;;10471266;28;45243;-65
2022/07/23 07:47:00;;;;;;;6.07;3.60;;;19.70;68.00;21.70;94186.00;;;;10473053;28;45086;-64
2022/07/23 07:52:22;;;;;;;6.60;3.72;;;19.60;68.10;21.70;94200.00;;;;10470947;28;45163;-65
2022/07/23 07:57:43;;;;;;;6.28;3.53;;;19.60;68.30;21.70;94184.00;;;;10469382;28;45171;-65
2022/07/23 08:03:04;;;;;;;6.90;3.35;;;19.60;68.60;21.70;94193.00;;;;10482695;28;45414;-65
2022/07/23 08:08:26;;;;;;;6.60;3.70;;;19.70;69.00;21.80;94195.00;;;;10458056;28;45220;-65
2022/07/23 08:13:46;;;;;;;4.68;3.67;;;19.70;70.30;21.80;94204.00;;;;10469132;28;45363;-64
2022/07/23 08:19:07;;;;;;;5.82;3.88;;;19.70;69.50;21.80;94197.00;;;;10469913;28;45263;-64
2022/07/23 08:24:28;;;;;;;4.53;3.40;;;19.70;69.50;21.80;94183.00;;;;10469259;28;45188;-64
2022/07/23 08:29:49;;;;;;;4.50;3.33;;;19.70;69.50;21.80;94193.00;;;;10469935;28;45150;-64
2022/07/23 08:35:09;;;;;;;4.93;3.35;;;19.70;69.70;21.80;94188.00;;;;10481403;28;45171;-64
2022/07/23 08:40:34;;;;;;;4.72;3.53;;;19.70;69.50;21.80;94188.00;;;;10469077;28;45164;-64
2022/07/23 08:45:58;;;;;;;6.45;3.60;;;19.70;69.80;21.80;94198.00;;;;10468781;28;45201;-65
2022/07/23 08:51:19;;;;;;;4.95;3.58;;;19.70;69.90;21.80;94182.00;;;;10469311;28;45268;-64
2022/07/23 08:56:42;;;;;;;4.28;3.50;;;19.70;69.80;21.80;94208.00;;;;10470101;28;45194;-64
2022/07/23 09:02:02;;;;;;;5.22;3.83;;;19.70;70.20;21.80;94194.00;;;;10480014;28;45169;-64
2022/07/23 09:07:22;;;;;;;5.18;3.55;;;19.70;69.10;21.80;94190.00;;;;10482755;28;45215;-64
2022/07/23 09:12:44;;;;;;;4.72;3.30;;;19.70;69.70;21.80;94173.00;;;;10475104;28;45217;-64
2022/07/23 09:18:05;;;;;;;4.75;3.40;;;19.70;68.80;21.80;94187.00;;;;10476122;28;45259;-64
2022/07/23 09:23:39;;;;;;;4.88;3.03;;;19.70;69.00;21.80;94183.00;;;;10475777;28;45151;-64
2022/07/23 09:29:09;;;;;;;4.38;2.90;;;19.70;68.90;21.90;94186.00;;;;10475090;28;45190;-65
2022/07/23 09:34:32;;;;;;;4.75;3.15;;;19.70;69.20;21.90;94195.00;;;;10491731;28;45451;-64
2022/07/23 09:40:05;;;;;;;4.95;3.30;;;19.70;68.80;21.90;94185.00;;;;10475318;28;45134;-65
2022/07/23 09:45:27;;;;;;;4.97;3.15;;;19.80;69.20;21.90;94189.00;;;;10474088;28;45184;-64
2022/07/23 09:50:48;;;;;;;4.85;3.42;;;19.80;68.90;22.00;94180.00;;;;10476487;28;45291;-64
2022/07/23 09:56:10;;;;;;;3.95;3.13;;;19.80;68.40;21.90;94189.00;;;;10475751;28;45207;-65
2022/07/23 10:01:32;;;;;;;4.63;3.28;;;19.80;68.30;21.90;94189.00;;;;10476579;28;45172;-65
2022/07/23 10:06:55;;;;;;;3.97;3.20;;;19.80;68.20;21.90;94201.00;;;;10473954;28;45141;-65
2022/07/23 10:17:52;;;;;;;4.68;3.10;;;19.80;67.90;21.90;94220.00;;;;10473907;28;45214;-64
2022/07/23 10:23:34;;;;;;;4.55;3.40;;;19.80;67.60;21.90;94216.00;;;;10463005;28;45360;-64
2022/07/23 10:29:12;;;;;;;5.00;3.03;;;19.80;67.70;21.90;94213.00;;;;10473944;28;45427;-65
2022/07/23 10:34:46;;;;;;;3.92;2.88;;;19.80;67.30;21.90;94195.00;;;;10485597;28;45444;-65
2022/07/23 10:40:13;;;;;;;4.38;3.38;;;19.80;67.50;21.90;94214.00;;;;10473201;28;45175;-64
2022/07/23 10:45:37;;;;;;;4.50;2.97;;;19.80;67.50;22.00;94216.00;;;;10472680;28;45279;-64
2022/07/23 10:51:11;;;;;;;4.63;3.22;;;19.80;67.60;22.00;94204.00;;;;10473795;28;45283;-65
2022/07/23 10:57:08;;;;;;;4.22;3.55;;;19.80;67.50;22.00;94213.00;;;;10442227;28;45239;-64
2022/07/23 11:02:31;;;;;;;3.75;3.15;;;19.90;67.70;22.00;94207.00;;;;10479122;28;45279;-64
2022/07/23 11:08:20;;;;;;;5.00;3.30;;;19.90;67.60;22.00;94209.00;;;;10476722;28;45283;-65
2022/07/23 11:13:47;;;;;;;3.85;3.10;;;19.90;67.80;22.00;94196.00;;;;10467415;28;45490;-64
2022/07/23 11:19:09;;;;;;;4.90;3.47;;;19.90;67.70;22.00;94197.00;;;;10471558;28;45211;-65
2022/07/23 11:24:31;;;;;;;4.70;3.80;;;19.90;67.80;22.00;94184.00;;;;10470844;28;45219;-65
2022/07/23 11:29:51;;;;;;;5.22;3.60;;;19.90;67.70;22.00;94192.00;;;;10471484;28;45163;-64
2022/07/23 11:35:26;;;;;;;5.13;3.75;;;19.90;67.80;22.00;94178.00;;;;10482811;28;45474;-64
2022/07/23 11:40:52;;;;;;;4.40;3.53;;;19.90;67.70;22.00;94186.00;;;;10470662;28;45183;-64
2022/07/23 11:46:12;;;;;;;4.38;3.35;;;19.90;68.00;22.00;94198.00;;;;10470082;28;45173;-64
2022/07/23 11:51:33;;;;;;;3.70;3.22;;;19.90;67.60;22.00;94189.00;;;;10470321;28;45132;-65
2022/07/23 11:56:58;;;;;;;4.43;3.85;;;19.90;67.60;22.10;94179.00;;;;10469264;28;45152;-63
2022/07/23 12:02:21;;;;;;;5.00;3.60;;;19.90;67.50;22.10;94189.00;;;;10475536;28;45142;-64
2022/07/23 12:07:44;;;;;;;4.88;3.60;;;19.90;66.80;22.10;94182.00;;;;10473596;28;45270;-64
2022/07/23 12:13:10;;;;;;;6.18;3.60;;;20.00;67.20;22.10;94180.00;;;;10455330;28;45152;-63
2022/07/23 12:18:30;;;;;;;4.93;3.60;;;20.00;67.00;22.10;94172.00;;;;10470511;28;45244;-63
2022/07/23 12:23:51;;;;;;;5.03;3.88;;;20.00;67.00;22.10;94157.00;;;;10469551;28;45223;-65
2022/07/23 12:29:13;;;;;;;4.25;3.40;;;20.00;66.80;22.10;94173.00;;;;10468225;28;45184;-64
2022/07/23 12:34:33;;;;;;;6.80;3.65;;;20.00;66.70;22.10;94162.00;;;;10479674;28;45181;-64
2022/07/23 12:39:54;;;;;;;4.47;3.35;;;20.00;66.60;22.10;94164.00;;;;10469338;28;45211;-64
2022/07/23 12:45:16;;;;;;;4.13;3.38;;;20.00;66.30;22.10;94161.00;;;;10469219;28;45136;-64
2022/07/23 12:50:50;;;;;;;4.95;3.90;;;20.00;66.20;22.30;94157.00;;;;10468975;28;45216;-63
2022/07/23 12:56:14;;;;;;;4.65;3.55;;;20.00;65.60;22.30;94172.00;;;;10467900;28;45178;-64
2022/07/23 13:01:38;;;;;;;5.40;3.58;;;20.20;64.90;22.40;94171.00;;;;10469201;28;45291;-64
2022/07/23 13:07:01;;;;;;;4.80;3.30;;;20.20;64.30;22.30;94167.00;;;;10457682;28;45423;-63
2022/07/23 13:12:22;;;;;;;5.82;3.78;;;20.20;64.20;22.30;94152.00;;;;10478112;28;45207;-64
2022/07/23 13:17:45;;;;;;;4.15;3.42;;;20.10;64.00;22.30;94142.00;;;;10467722;28;45174;-64
2022/07/23 13:23:06;;;;;;;4.78;3.72;;;20.10;64.00;22.30;94161.00;;;;10456861;28;45172;-64
2022/07/23 13:28:26;;;;;;;5.63;3.67;;;20.10;63.80;22.30;94154.00;;;;10467505;28;45179;-64
2022/07/23 13:33:48;;;;;;;4.75;3.38;;;20.20;63.50;22.30;94149.00;;;;10468020;28;45200;-64
2022/07/23 13:39:09;;;;;;;5.07;3.53;;;20.10;63.70;22.30;94149.00;;;;10466636;28;45188;-63
2022/07/23 13:44:29;;;;;;;5.40;3.72;;;20.20;63.40;22.40;94158.00;;;;10469911;28;45251;-64
2022/07/23 13:49:51;;;;;;;4.80;3.88;;;20.20;63.20;22.30;94155.00;;;;10475025;28;45219;-64
2022/07/23 13:55:12;;;;;;;5.82;3.67;;;20.20;63.00;22.40;94166.00;;;;10474765;28;45263;-65
2022/07/23 14:00:35;;;;;;;5.13;3.47;;;20.20;62.80;22.40;94163.00;;;;10474074;28;45236;-64
2022/07/23 14:05:58;;;;;;;4.97;3.42;;;20.20;62.60;22.40;94161.00;;;;10487603;28;45277;-64
2022/07/23 14:11:19;;;;;;;4.85;3.70;;;20.20;62.70;22.40;94164.00;;;;10481372;28;45212;-64
2022/07/23 14:16:39;;;;;;;4.93;3.47;;;20.30;62.50;22.40;94169.00;;;;10481948;28;45164;-64
2022/07/23 14:22:01;;;;;;;4.25;3.47;;;20.30;62.50;22.40;94164.00;;;;10464357;28;45337;-64
2022/07/23 14:27:22;;;;;;;4.15;3.30;;;20.30;62.20;22.40;94149.00;;;;10474546;28;45125;-65
2022/07/23 14:32:42;;;;;;;6.05;3.80;;;20.30;62.20;22.40;94159.00;;;;10473431;28;45235;-64
2022/07/23 14:38:04;;;;;;;5.10;3.60;;;20.30;62.10;22.40;94155.00;;;;10472761;28;45297;-65
2022/07/23 14:43:25;;;;;;;5.20;3.38;;;20.30;62.00;22.40;94163.00;;;;10472997;28;45219;-65
2022/07/23 14:48:45;;;;;;;4.85;3.45;;;20.30;61.80;22.40;94155.00;;;;10472652;28;45237;-64
2022/07/23 14:54:07;;;;;;;4.95;3.53;;;20.30;62.00;22.40;94173.00;;;;10472315;28;45132;-65
2022/07/23 14:59:28;;;;;;;3.75;3.20;;;20.30;61.80;22.40;94156.00;;;;10472275;28;45269;-65
2022/07/23 15:04:49;;;;;;;4.45;3.10;;;20.30;61.70;22.50;94140.00;;;;10471975;28;45242;-64
2022/07/23 15:10:11;;;;;;;4.28;3.40;;;20.30;61.70;22.50;94155.00;;;;10473277;28;45242;-64
2022/07/23 15:15:31;;;;;;;5.07;3.42;;;20.30;61.60;22.50;94156.00;;;;10483317;28;45161;-64
2022/07/23 15:20:52;;;;;;;4.45;3.25;;;20.40;61.50;22.50;94157.00;;;;10471226;28;46099;-65
2022/07/23 15:26:14;;;;;;;4.05;3.40;;;20.40;61.50;22.50;94136.00;;;;10460862;28;45254;-65
2022/07/23 15:31:35;;;;;;;3.92;3.28;;;20.40;61.30;22.50;94155.00;;;;10475054;28;45268;-65
2022/07/23 15:36:56;;;;;;;5.07;3.42;;;20.40;61.20;22.60;94147.00;;;;10466540;28;45219;-65
2022/07/23 15:42:18;;;;;;;5.70;3.42;;;20.50;61.40;22.60;94148.00;;;;10468346;28;45231;-64
2022/07/23 15:47:40;;;;;;;5.15;3.20;;;20.50;60.90;22.60;94139.00;;;;10470506;28;45233;-64
2022/07/23 15:53:00;;;;;;;6.32;3.90;;;20.50;61.00;22.60;94151.00;;;;10478935;28;45192;-65
2022/07/23 15:58:22;;;;;;;4.82;3.25;;;20.50;60.80;22.60;94139.00;;;;10467282;28;45192;-65
2022/07/23 16:03:43;;;;;;;4.22;3.17;;;20.50;60.60;22.60;94132.00;;;;10471327;28;45241;-65
2022/07/23 16:09:04;;;;;;;4.60;3.13;;;20.60;60.60;22.70;94149.00;;;;10469098;28;45350;-64
2022/07/23 16:14:26;;;;;;;4.93;3.20;;;20.60;60.50;22.70;94154.00;;;;10470454;28;45213;-64
2022/07/23 16:19:47;;;;;;;4.47;3.30;;;20.60;61.20;22.70;94156.00;;;;10465063;28;45120;-65
2022/07/23 16:25:09;;;;;;;4.90;3.35;;;20.60;60.30;22.70;94151.00;;;;10465572;28;45156;-65
2022/07/23 16:30:32;;;;;;;5.97;3.10;;;20.60;60.20;22.80;94136.00;;;;10465424;28;45258;-64
2022/07/23 16:35:53;;;;;;;3.90;3.00;;;20.60;60.20;22.80;94138.00;;;;10464998;28;45196;-65
2022/07/23 16:41:13;;;;;;;4.82;3.58;;;20.70;60.00;22.80;94147.00;;;;10465488;28;45318;-65
2022/07/23 16:46:35;;;;;;;4.38;3.17;;;20.70;60.00;22.70;94154.00;;;;10465516;28;45299;-65
2022/07/23 16:51:56;;;;;;;4.03;3.13;;;20.70;59.90;22.80;94152.00;;;;10468492;28;45228;-64
2022/07/23 16:57:17;;;;;;;3.80;3.20;;;20.70;59.90;22.80;94148.00;;;;10466219;28;45270;-64
2022/07/23 17:02:39;;;;;;;4.55;3.03;;;20.70;59.80;22.70;94149.00;;;;10463682;28;45521;-65
2022/07/23 17:08:01;;;;;;;4.50;3.10;;;20.60;59.90;22.70;94155.00;;;;10461032;28;45787;-65
2022/07/23 17:13:22;;;;;;;4.45;3.00;;;20.60;59.90;22.70;94163.00;;;;10465862;28;45351;-65
2022/07/23 17:18:44;;;;;;;4.03;3.20;;;20.60;60.00;22.60;94162.00;;;;10466232;28;45303;-65
2022/07/23 17:24:05;;;;;;;3.85;3.20;;;20.50;59.90;22.60;94172.00;;;;10473085;28;45209;-65
2022/07/23 17:29:25;;;;;;;4.40;3.22;;;20.50;60.00;22.60;94159.00;;;;10473134;28;45194;-65
2022/07/23 17:34:47;;;;;;;4.35;2.95;;;20.50;60.00;22.60;94164.00;;;;10469199;28;45191;-65
2022/07/23 17:40:09;;;;;;;4.10;3.25;;;20.50;59.90;22.60;94169.00;;;;10471034;28;45138;-63
2022/07/23 17:45:30;;;;;;;4.75;3.42;;;20.50;60.00;22.60;94170.00;;;;10474440;28;45191;-65
2022/07/23 17:50:52;;;;;;;5.07;3.40;;;20.40;60.10;22.50;94161.00;;;;10466190;28;45474;-65
2022/07/23 17:56:13;;;;;;;4.25;3.08;;;20.40;60.20;22.50;94183.00;;;;10474547;28;45258;-65
2022/07/23 18:01:35;;;;;;;3.83;3.10;;;20.40;60.30;22.50;94186.00;;;;10479153;28;45363;-64
2022/07/23 18:06:59;;;;;;;3.45;3.00;;;20.40;60.30;22.50;94172.00;;;;10475562;28;45262;-65
2022/07/23 18:12:19;;;;;;;3.13;2.83;;;20.40;60.40;22.50;94183.00;;;;10473812;28;45468;-63
2022/07/23 18:17:42;;;;;;;3.55;2.88;;;20.30;60.40;22.50;94200.00;;;;10476521;28;45398;-65
2022/07/23 18:23:04;;;;;;;3.78;2.90;;;20.30;60.40;22.50;94192.00;;;;10472257;28;45236;-65
2022/07/23 18:28:24;;;;;;;3.42;3.00;;;20.30;60.30;22.50;94197.00;;;;10469881;28;45220;-65
2022/07/23 18:33:45;;;;;;;3.92;3.03;;;20.30;60.30;22.50;94204.00;;;;10466339;28;45172;-65
2022/07/23 18:39:07;;;;;;;4.32;3.22;;;20.30;60.20;22.50;94201.00;;;;10480974;28;45250;-65
2022/07/23 18:44:27;;;;;;;4.70;3.50;;;20.30;60.10;22.40;94207.00;;;;10470474;28;45215;-65
2022/07/23 18:49:48;;;;;;;5.07;3.60;;;20.30;60.30;22.40;94196.00;;;;10479142;28;45312;-64
2022/07/23 18:55:11;;;;;;;4.00;3.20;;;20.30;60.20;22.40;94224.00;;;;10475913;28;45360;-64
2022/07/23 19:00:33;;;;;;;4.90;3.35;;;20.30;60.30;22.50;94226.00;;;;10468192;28;45368;-63
2022/07/23 19:05:54;;;;;;;6.30;4.32;;;20.30;60.70;22.40;94214.00;;;;10477534;28;45168;-65
2022/07/23 19:11:16;;;;;;;5.45;4.00;;;20.30;60.80;22.40;94219.00;;;;10471726;28;45237;-65
2022/07/23 19:16:37;;;;;;;6.47;4.13;;;20.20;60.80;22.40;94222.00;;;;10471460;28;45154;-65
2022/07/23 19:21:57;;;;;;;6.28;3.90;;;20.20;61.10;22.40;94237.00;;;;10467610;28;45258;-64
2022/07/23 19:27:19;;;;;;;5.22;4.05;;;20.30;61.50;22.40;94250.00;;;;10467909;28;45203;-65
2022/07/23 19:32:40;;;;;;;4.97;3.80;;;20.30;61.80;22.30;94247.00;;;;10475646;28;45281;-65
2022/07/23 19:38:01;;;;;;;5.82;4.13;;;20.20;62.00;22.30;94248.00;;;;10468578;28;45031;-62
2022/07/23 19:43:23;;;;;;;6.55;4.22;;;20.20;62.20;22.30;94266.00;;;;10470465;28;45235;-65
2022/07/23 19:48:44;;;;;;;5.35;4.18;;;20.20;62.30;22.30;94261.00;;;;10470106;28;45289;-65
2022/07/23 19:54:06;;;;;;;6.63;4.78;;;20.20;62.20;22.30;94274.00;;;;10472017;28;45062;-64
2022/07/23 19:59:27;;;;;;;7.07;5.10;;;20.20;62.40;22.30;94261.00;;;;10468563;28;45434;-65
2022/07/23 20:04:48;;;;;;;6.88;4.47;;;20.20;62.70;22.30;94275.00;;;;10463679;28;45205;-65
2022/07/23 20:10:11;;;;;;;5.75;4.20;;;20.20;62.90;22.30;94290.00;;;;10468079;28;45528;-65
2022/07/23 20:15:33;;;;;;;5.72;4.20;;;20.20;62.70;22.30;94292.00;;;;10474291;28;45275;-64
2022/07/23 20:20:54;;;;;;;5.05;4.00;;;20.20;62.40;22.30;94291.00;;;;10469576;28;45267;-65
2022/07/23 20:26:14;;;;;;;6.43;4.07;;;20.20;62.20;22.20;94296.00;;;;10468147;28;45279;-65
2022/07/23 20:31:36;;;;;;;5.45;4.03;;;20.20;62.30;22.20;94295.00;;;;10469101;28;45591;-65
2022/07/23 20:36:57;;;;;;;4.90;3.95;;;20.20;62.30;22.20;94300.00;;;;10469346;28;45256;-65
2022/07/23 20:42:19;;;;;;;5.43;3.80;;;20.10;62.20;22.20;94295.00;;;;10467077;28;45200;-63
2022/07/23 20:47:41;;;;;;;5.88;4.22;;;20.20;62.20;22.20;94309.00;;;;10471238;28;45483;-64
2022/07/23 20:53:02;;;;;;;6.10;3.83;;;20.10;61.90;22.20;94304.00;;;;10472770;28;45177;-65
2022/07/23 20:58:23;;;;;;;6.53;4.22;;;20.10;61.50;22.20;94312.00;;;;10474568;28;45248;-63
2022/07/23 21:03:45;;;;;;;6.60;4.55;;;20.10;61.40;22.20;94328.00;;;;10477787;28;45574;-65
2022/07/23 21:09:05;;;;;;;5.30;3.65;;;20.10;61.20;22.20;94315.00;;;;10475839;28;45422;-65
2022/07/23 21:14:26;;;;;;;5.00;3.70;;;20.10;60.90;22.10;94311.00;;;;10472468;28;45405;-64
2022/07/23 21:19:47;;;;;;;4.93;3.60;;;20.00;60.70;22.10;94301.00;;;;10485917;28;45302;-65
2022/07/23 21:25:09;;;;;;;4.80;3.90;;;20.00;60.60;22.10;94301.00;;;;10466623;28;45156;-65
2022/07/23 21:30:30;;;;;;;5.70;3.80;;;20.00;60.70;22.10;94301.00;;;;10476238;28;45167;-65
2022/07/23 21:35:52;;;;;;;5.20;4.03;;;20.00;60.70;22.10;94305.00;;;;10461086;28;45281;-65
2022/07/23 21:41:12;;;;;;;4.80;3.65;;;20.00;60.80;22.10;94285.00;;;;10476042;28;45196;-65
2022/07/23 21:46:34;;;;;;;4.35;3.58;;;20.00;60.80;22.10;94310.00;;;;10474798;28;45165;-65
2022/07/23 21:51:56;;;;;;;5.32;3.70;;;20.00;60.90;22.10;94310.00;;;;10485825;28;45352;-65
2022/07/23 21:57:16;;;;;;;5.72;4.00;;;20.00;60.90;22.10;94303.00;;;;10463679;28;45176;-65
2022/07/23 22:02:36;;;;;;;4.82;3.53;;;20.00;60.70;22.00;94313.00;;;;10482122;28;45250;-65
2022/07/23 22:07:59;;;;;;;6.95;4.13;;;20.00;60.90;22.10;94317.00;;;;10475947;28;45262;-64
2022/07/23 22:13:19;;;;;;;4.90;3.85;;;20.00;60.60;22.00;94312.00;;;;10474942;28;45219;-64
2022/07/23 22:18:40;;;;;;;5.40;4.28;;;20.00;60.60;22.10;94312.00;;;;10474716;28;45442;-65
2022/07/23 22:24:02;;;;;;;5.13;3.83;;;20.00;61.30;22.10;94300.00;;;;10472521;28;45156;-64
2022/07/23 22:29:23;;;;;;;4.25;3.55;;;20.00;60.50;22.10;94310.00;;;;10459845;28;45204;-63
2022/07/23 22:34:43;;;;;;;5.22;3.80;;;20.00;60.40;22.10;94296.00;;;;10473308;28;45268;-65
2022/07/23 22:40:08;;;;;;;5.05;3.70;;;20.00;60.20;22.00;94307.00;;;;10474086;28;45349;-65
2022/07/23 22:45:29;;;;;;;5.88;4.03;;;20.00;60.30;22.00;94317.00;;;;10472655;28;45164;-65
2022/07/23 22:50:49;;;;;;;5.28;3.70;;;20.00;60.40;21.90;94315.00;;;;10475107;28;45554;-65
2022/07/23 22:56:11;;;;;;;4.20;3.38;;;19.90;60.70;22.00;94327.00;;;;10478684;28;45461;-65
2022/07/23 23:01:32;;;;;;;4.57;3.42;;;19.90;60.70;22.00;94332.00;;;;10472758;28;45218;-65
2022/07/23 23:06:53;;;;;;;6.07;3.70;;;19.90;60.70;21.90;94313.00;;;;10472022;28;45283;-65
2022/07/23 23:12:15;;;;;;;4.28;3.72;;;19.90;61.10;21.90;94333.00;;;;10472225;28;45178;-65
2022/07/23 23:17:35;;;;;;;5.32;4.00;;;19.80;61.30;22.00;94320.00;;;;10470882;28;45249;-64
2022/07/23 23:22:55;;;;;;;5.57;4.18;;;19.90;61.10;22.00;94325.00;;;;10471722;28;45205;-64
2022/07/23 23:28:17;;;;;;;5.40;4.13;;;19.90;60.70;22.00;94323.00;;;;10473663;28;45260;-64
2022/07/23 23:33:38;;;;;;;5.20;4.00;;;19.90;60.40;21.90;94324.00;;;;10482485;28;45176;-65
2022/07/23 23:38:59;;;;;;;4.75;3.85;;;19.90;60.60;22.00;94328.00;;;;10471512;28;45395;-65
2022/07/23 23:44:21;;;;;;;4.93;3.88;;;19.90;60.20;22.00;94311.00;;;;10470840;28;45176;-63